aviador You're here:

EPWR Decoded Metar

WROCLAW in POLAND
Report Time2018-02-18 21:30:00
UTC Time2018-02-18 21:40:47
Flight Rules vfr VFR
Wind210° at 03 kt
W.Decomp.*RWY 29: 0.4 kt HW 3 kt LCW
W.Rank210° ranks 21
Current wind is below 210° avg. (4.9)
Visibility9999 m
Phenomena:N/A
Clouds:Broken 040 Hf
Expected CloudBase > 1,600 ft AGL from Temp-Dew spread
Ceiling4,000 ft
Temp00°C (ISA -14)
Dew Point-4°C (75% RH)
AAT-3.6°C
QNH1028 hPa
Density Alt-1,785 ft
Elevation397 ft
Report Wrong Elevation
Raw Report
EPWR 182130Z 21003KT 9999 BKN040 M00/M04 Q1028=

Extra information for EPWR:More info

Metar Taf Metar & Taf Last 4 Metars F.Rules Stats Wind Profile Meteogram Temp Stats Airport Information Weather charts Add Link Nearby VenuesMetar ALERT Operation Metar Decoded Social comments